NSZ4337 ESSA-LDSP
Flight info
| Callsign | NSZ4337 |
|---|---|
| Flight time | 2h 34m |
| Altitude | 35000 |
| Route | BABAP T316 NEPVA DCT PENOR/N0457F370 DCT BEZMI DCT XIDNA DCT MIKOV/N0455F360 DCT INSAX/N0452F380 DCT TISKO/N0453F370 DCT PETOV DCT NIVES DCT NUPSO |
| Aircraft | B738/M-SDE2E3FGHIRWXY/LB1 |
Departure
| Time | 2026-05-04 15:43 |
|---|---|
| Airport | Stockholm-Arlanda Airport (ESSA) |
Arrival
| Time | 2026-05-04 18:18 |
|---|---|
| Airport | Split Saint Jerome Airport (LDSP) |
| Time | Latitude | Longitude | Altitude | Speed | Heading |
|---|---|---|---|---|---|
| 2026-05-04 15:04 | 59.65139 | 17.92797 | 111 ft | 0 kts | 192° |
| 2026-05-04 15:34 | 59.65174 | 17.92810 | 111 ft | 4 kts | 190° |
| 2026-05-04 15:34 | 59.65199 | 17.92824 | 110 ft | 4 kts | 216° |
| 2026-05-04 15:34 | 59.65216 | 17.92884 | 109 ft | 1 kts | 275° |
| 2026-05-04 15:38 | 59.65217 | 17.92850 | 111 ft | 5 kts | 274° |
| 2026-05-04 15:38 | 59.65225 | 17.92778 | 111 ft | 5 kts | 287° |
| 2026-05-04 15:38 | 59.65237 | 17.92711 | 111 ft | 5 kts | 290° |
| 2026-05-04 15:38 | 59.65249 | 17.92643 | 109 ft | 5 kts | 289° |
| 2026-05-04 15:39 | 59.65263 | 17.92560 | 109 ft | 8 kts | 288° |
| 2026-05-04 15:39 | 59.65273 | 17.92497 | 110 ft | 2 kts | 287° |
| 2026-05-04 15:39 | 59.65329 | 17.92289 | 105 ft | 16 kts | 321° |
| 2026-05-04 15:40 | 59.65453 | 17.92303 | 102 ft | 20 kts | 12° |
| 2026-05-04 15:40 | 59.65603 | 17.92362 | 104 ft | 24 kts | 11° |
| 2026-05-04 15:40 | 59.65769 | 17.92422 | 104 ft | 24 kts | 9° |
| 2026-05-04 15:40 | 59.65918 | 17.92472 | 107 ft | 20 kts | 11° |
| 2026-05-04 15:41 | 59.66053 | 17.92524 | 109 ft | 19 kts | 10° |
| 2026-05-04 15:41 | 59.66183 | 17.92570 | 112 ft | 19 kts | 9° |
| 2026-05-04 15:41 | 59.66309 | 17.92613 | 114 ft | 18 kts | 10° |
| 2026-05-04 15:41 | 59.66428 | 17.92655 | 116 ft | 17 kts | 2° |
| 2026-05-04 15:42 | 59.66543 | 17.92601 | 122 ft | 17 kts | 342° |
| 2026-05-04 15:42 | 59.66613 | 17.92448 | 122 ft | 16 kts | 268° |
| 2026-05-04 15:42 | 59.66562 | 17.92358 | 118 ft | 10 kts | 188° |
| 2026-05-04 15:42 | 59.66368 | 17.92286 | 116 ft | 62 kts | 191° |
| 2026-05-04 15:43 | 59.65708 | 17.92039 | 108 ft | 128 kts | 189° |
| 2026-05-04 15:43 | 59.64705 | 17.91674 | 394 ft | 156 kts | 189° |
| 2026-05-04 15:43 | 59.63508 | 17.91547 | 757 ft | 193 kts | 182° |
| 2026-05-04 15:43 | 59.62138 | 17.91425 | 1392 ft | 199 kts | 192° |
| 2026-05-04 15:44 | 59.60764 | 17.91026 | 2068 ft | 200 kts | 192° |
| 2026-05-04 15:44 | 59.59362 | 17.90671 | 2701 ft | 207 kts | 189° |
| 2026-05-04 15:44 | 59.57942 | 17.91315 | 3398 ft | 220 kts | 151° |
| 2026-05-04 15:44 | 59.56907 | 17.93622 | 4040 ft | 235 kts | 116° |
| 2026-05-04 15:45 | 59.56637 | 17.96801 | 4638 ft | 244 kts | 81° |
| 2026-05-04 15:45 | 59.57171 | 17.99954 | 4993 ft | 247 kts | 58° |
| 2026-05-04 15:45 | 59.58055 | 18.02884 | 4967 ft | 248 kts | 54° |
| 2026-05-04 15:45 | 59.58978 | 18.05776 | 5002 ft | 252 kts | 54° |
| 2026-05-04 15:46 | 59.59901 | 18.08738 | 5003 ft | 252 kts | 55° |
| 2026-05-04 15:46 | 59.60805 | 18.11691 | 5002 ft | 251 kts | 56° |
| 2026-05-04 15:46 | 59.61669 | 18.14684 | 4991 ft | 254 kts | 64° |
| 2026-05-04 15:46 | 59.62310 | 18.18147 | 5057 ft | 283 kts | 70° |
| 2026-05-04 15:47 | 59.62947 | 18.21932 | 5037 ft | 295 kts | 70° |
| 2026-05-04 15:47 | 59.63603 | 18.25783 | 4999 ft | 296 kts | 70° |
| 2026-05-04 15:47 | 59.64255 | 18.29576 | 4986 ft | 292 kts | 70° |
| 2026-05-04 15:47 | 59.64920 | 18.33398 | 4995 ft | 290 kts | 70° |
| 2026-05-04 15:48 | 59.65461 | 18.37242 | 5254 ft | 298 kts | 88° |
| 2026-05-04 15:48 | 59.65029 | 18.41198 | 6127 ft | 293 kts | 122° |
| 2026-05-04 15:48 | 59.61948 | 18.45798 | 7710 ft | 278 kts | 172° |
| 2026-05-04 15:49 | 59.60044 | 18.46312 | 8521 ft | 277 kts | 181° |
| 2026-05-04 15:49 | 59.58113 | 18.46638 | 9290 ft | 281 kts | 182° |
| 2026-05-04 15:49 | 59.56180 | 18.46927 | 10001 ft | 287 kts | 182° |
| 2026-05-04 15:49 | 59.54102 | 18.47221 | 10243 ft | 310 kts | 182° |
| 2026-05-04 15:50 | 59.51862 | 18.47531 | 10442 ft | 333 kts | 182° |
| 2026-05-04 15:50 | 59.49473 | 18.47869 | 10609 ft | 355 kts | 182° |
| 2026-05-04 15:50 | 59.46983 | 18.48233 | 11015 ft | 367 kts | 182° |
| 2026-05-04 15:50 | 59.44425 | 18.48626 | 11711 ft | 370 kts | 182° |
| 2026-05-04 15:51 | 59.41840 | 18.49035 | 12434 ft | 373 kts | 182° |
| 2026-05-04 15:51 | 59.39232 | 18.49450 | 13147 ft | 376 kts | 182° |
| 2026-05-04 15:51 | 59.36619 | 18.49866 | 13834 ft | 378 kts | 182° |
| 2026-05-04 15:51 | 59.33984 | 18.50282 | 14466 ft | 381 kts | 182° |
| 2026-05-04 15:52 | 59.31327 | 18.50699 | 15093 ft | 384 kts | 182° |
| 2026-05-04 15:52 | 59.28647 | 18.51118 | 15705 ft | 387 kts | 182° |
| 2026-05-04 15:52 | 59.25977 | 18.51533 | 16313 ft | 390 kts | 182° |
| 2026-05-04 15:52 | 59.23264 | 18.51955 | 16911 ft | 393 kts | 182° |
| 2026-05-04 15:53 | 59.20525 | 18.52379 | 17503 ft | 396 kts | 182° |
| 2026-05-04 15:53 | 59.17780 | 18.52804 | 18069 ft | 399 kts | 182° |
| 2026-05-04 15:53 | 59.15096 | 18.53217 | 18547 ft | 401 kts | 182° |
| 2026-05-04 15:53 | 59.12326 | 18.53644 | 18991 ft | 405 kts | 182° |
| 2026-05-04 15:54 | 59.09525 | 18.54073 | 19414 ft | 409 kts | 182° |
| 2026-05-04 15:54 | 59.06676 | 18.54510 | 19919 ft | 411 kts | 182° |
| 2026-05-04 15:54 | 59.03843 | 18.54943 | 20398 ft | 413 kts | 182° |
| 2026-05-04 15:54 | 59.00960 | 18.55382 | 20859 ft | 416 kts | 182° |
| 2026-05-04 15:55 | 58.98071 | 18.55824 | 21298 ft | 419 kts | 182° |
| 2026-05-04 15:55 | 58.95137 | 18.56262 | 21739 ft | 421 kts | 184° |
| 2026-05-04 15:55 | 58.92215 | 18.56160 | 22157 ft | 416 kts | 192° |
| 2026-05-04 15:55 | 58.89390 | 18.55150 | 22594 ft | 411 kts | 200° |
| 2026-05-04 15:56 | 58.86644 | 18.53828 | 23043 ft | 413 kts | 200° |
| 2026-05-04 15:56 | 58.83846 | 18.52488 | 23389 ft | 416 kts | 200° |
| 2026-05-04 15:56 | 58.81008 | 18.51139 | 23630 ft | 421 kts | 199° |
| 2026-05-04 15:56 | 58.78146 | 18.49790 | 23934 ft | 424 kts | 199° |
| 2026-05-04 15:57 | 58.75290 | 18.48455 | 24272 ft | 426 kts | 199° |
| 2026-05-04 15:57 | 58.72406 | 18.47115 | 24600 ft | 428 kts | 199° |
| 2026-05-04 15:57 | 58.69496 | 18.45769 | 24893 ft | 431 kts | 199° |
| 2026-05-04 15:57 | 58.66560 | 18.44414 | 25183 ft | 434 kts | 199° |
| 2026-05-04 15:58 | 58.63615 | 18.43058 | 25469 ft | 436 kts | 199° |
| 2026-05-04 15:58 | 58.60687 | 18.41712 | 25748 ft | 439 kts | 199° |
| 2026-05-04 15:58 | 58.57705 | 18.40343 | 26025 ft | 441 kts | 199° |
| 2026-05-04 15:58 | 58.54705 | 18.38969 | 26214 ft | 445 kts | 199° |
| 2026-05-04 15:59 | 58.51677 | 18.37582 | 26400 ft | 449 kts | 199° |
| 2026-05-04 15:59 | 58.48638 | 18.36194 | 26674 ft | 451 kts | 199° |
| 2026-05-04 15:59 | 58.45579 | 18.34800 | 26963 ft | 452 kts | 199° |
| 2026-05-04 15:59 | 58.42500 | 18.33401 | 27235 ft | 454 kts | 199° |
| 2026-05-04 16:00 | 58.39423 | 18.32006 | 27567 ft | 454 kts | 199° |
| 2026-05-04 16:00 | 58.36348 | 18.30616 | 27953 ft | 453 kts | 199° |
| 2026-05-04 16:00 | 58.33306 | 18.29244 | 28327 ft | 452 kts | 199° |
| 2026-05-04 16:00 | 58.30279 | 18.27880 | 28666 ft | 453 kts | 199° |
| 2026-05-04 16:01 | 58.27209 | 18.26498 | 28951 ft | 453 kts | 199° |
| 2026-05-04 16:01 | 58.24128 | 18.25112 | 29252 ft | 454 kts | 199° |
| 2026-05-04 16:01 | 58.21065 | 18.23737 | 29619 ft | 453 kts | 199° |
| 2026-05-04 16:01 | 58.17976 | 18.22353 | 29976 ft | 452 kts | 199° |
| 2026-05-04 16:02 | 58.14911 | 18.20983 | 30278 ft | 452 kts | 199° |
| 2026-05-04 16:02 | 58.11882 | 18.19630 | 30576 ft | 451 kts | 198° |
| 2026-05-04 16:02 | 58.05779 | 18.16913 | 31173 ft | 450 kts | 199° |
| 2026-05-04 16:03 | 58.02726 | 18.15558 | 31474 ft | 449 kts | 199° |
| 2026-05-04 16:03 | 57.99685 | 18.14209 | 31727 ft | 449 kts | 198° |
| 2026-05-04 16:03 | 57.96645 | 18.12863 | 32015 ft | 448 kts | 198° |
| 2026-05-04 16:03 | 57.93613 | 18.11524 | 32318 ft | 447 kts | 198° |
| 2026-05-04 16:04 | 57.90577 | 18.10186 | 32621 ft | 446 kts | 198° |
| 2026-05-04 16:04 | 57.84578 | 18.07550 | 33184 ft | 445 kts | 198° |
| 2026-05-04 16:04 | 57.81561 | 18.06228 | 33466 ft | 444 kts | 198° |
| 2026-05-04 16:05 | 57.78553 | 18.04911 | 33752 ft | 443 kts | 198° |
| 2026-05-04 16:05 | 57.75543 | 18.03594 | 33969 ft | 443 kts | 198° |
| 2026-05-04 16:05 | 57.69556 | 18.00985 | 34462 ft | 439 kts | 198° |
| 2026-05-04 16:06 | 57.66614 | 17.99707 | 34671 ft | 439 kts | 198° |
| 2026-05-04 16:06 | 57.58662 | 17.96251 | 34773 ft | 441 kts | 198° |
| 2026-05-04 16:07 | 57.55671 | 17.94952 | 34756 ft | 441 kts | 198° |
| 2026-05-04 16:08 | 57.42727 | 17.89372 | 34757 ft | 440 kts | 198° |
| 2026-05-04 16:09 | 57.28950 | 17.83471 | 34776 ft | 439 kts | 198° |
| 2026-05-04 16:10 | 57.17069 | 17.78429 | 34765 ft | 438 kts | 197° |
| 2026-05-04 16:11 | 57.05180 | 17.73416 | 34779 ft | 438 kts | 198° |
| 2026-05-04 16:12 | 56.87343 | 17.65935 | 34789 ft | 438 kts | 198° |
| 2026-05-04 16:13 | 56.75499 | 17.61024 | 34792 ft | 438 kts | 197° |
| 2026-05-04 16:14 | 56.63598 | 17.56111 | 34800 ft | 437 kts | 198° |
| 2026-05-04 16:16 | 56.48777 | 17.50040 | 34808 ft | 436 kts | 198° |
| 2026-05-04 16:17 | 56.34006 | 17.44037 | 34819 ft | 435 kts | 198° |
| 2026-05-04 16:18 | 56.22206 | 17.39277 | 34846 ft | 433 kts | 198° |
| 2026-05-04 16:19 | 56.07584 | 17.33419 | 34833 ft | 429 kts | 198° |
| 2026-05-04 16:20 | 55.93063 | 17.27635 | 34865 ft | 427 kts | 199° |
| 2026-05-04 16:22 | 55.78614 | 17.21917 | 34863 ft | 426 kts | 199° |
| 2026-05-04 16:23 | 55.61057 | 17.16533 | 34876 ft | 442 kts | 182° |
| 2026-05-04 16:25 | 55.42643 | 17.20476 | 34888 ft | 444 kts | 180° |
| 2026-05-04 16:26 | 55.21206 | 17.24754 | 34905 ft | 441 kts | 180° |
| 2026-05-04 16:28 | 55.06053 | 17.27744 | 34904 ft | 438 kts | 180° |
| 2026-05-04 16:29 | 54.84823 | 17.31899 | 34933 ft | 439 kts | 180° |
| 2026-05-04 16:31 | 54.69609 | 17.34839 | 34941 ft | 441 kts | 180° |
| 2026-05-04 16:32 | 54.51263 | 17.38347 | 34932 ft | 442 kts | 180° |
| 2026-05-04 16:33 | 54.39094 | 17.40604 | 34921 ft | 439 kts | 184° |
| 2026-05-04 16:34 | 54.30107 | 17.39465 | 34956 ft | 430 kts | 192° |
| 2026-05-04 16:35 | 54.12157 | 17.36520 | 34946 ft | 434 kts | 191° |
| 2026-05-04 16:36 | 54.03153 | 17.35081 | 34940 ft | 436 kts | 191° |
| 2026-05-04 16:37 | 53.94069 | 17.33638 | 34938 ft | 436 kts | 191° |
| 2026-05-04 16:38 | 53.81970 | 17.31726 | 34933 ft | 437 kts | 191° |
| 2026-05-04 16:39 | 53.66854 | 17.29352 | 34922 ft | 437 kts | 191° |
| 2026-05-04 16:40 | 53.54706 | 17.27453 | 34928 ft | 437 kts | 191° |
| 2026-05-04 16:41 | 53.39557 | 17.25100 | 34927 ft | 438 kts | 191° |
| 2026-05-04 16:43 | 53.24375 | 17.22760 | 34907 ft | 440 kts | 190° |
| 2026-05-04 16:43 | 53.15230 | 17.21359 | 34904 ft | 442 kts | 190° |
| 2026-05-04 16:45 | 52.96850 | 17.18563 | 34916 ft | 442 kts | 189° |
| 2026-05-04 16:46 | 52.81554 | 17.16254 | 34929 ft | 442 kts | 190° |
| 2026-05-04 16:47 | 52.69277 | 17.14408 | 34936 ft | 442 kts | 190° |
| 2026-05-04 16:48 | 52.57051 | 17.12587 | 34933 ft | 443 kts | 189° |
| 2026-05-04 16:49 | 52.44776 | 17.10763 | 34929 ft | 443 kts | 189° |
| 2026-05-04 16:50 | 52.32449 | 17.08941 | 34928 ft | 445 kts | 189° |
| 2026-05-04 16:51 | 52.23191 | 17.07580 | 34933 ft | 447 kts | 189° |
| 2026-05-04 16:52 | 52.10793 | 17.05760 | 34931 ft | 449 kts | 189° |
| 2026-05-04 16:53 | 52.01435 | 17.04398 | 34933 ft | 450 kts | 189° |
| 2026-05-04 16:54 | 51.88989 | 17.02589 | 34942 ft | 449 kts | 188° |
| 2026-05-04 16:55 | 51.70380 | 16.99885 | 34925 ft | 448 kts | 188° |
| 2026-05-04 16:56 | 51.55901 | 16.97952 | 34935 ft | 446 kts | 188° |
| 2026-05-04 16:57 | 51.46626 | 16.96695 | 34931 ft | 446 kts | 188° |
| 2026-05-04 16:58 | 51.34290 | 16.95020 | 34938 ft | 446 kts | 188° |
| 2026-05-04 17:00 | 51.15660 | 16.92507 | 34941 ft | 449 kts | 188° |
| 2026-05-04 17:01 | 51.00044 | 16.90410 | 34948 ft | 452 kts | 187° |
| 2026-05-04 17:02 | 50.87563 | 16.88750 | 34938 ft | 453 kts | 188° |
| 2026-05-04 17:03 | 50.78149 | 16.87502 | 34943 ft | 453 kts | 187° |
| 2026-05-04 17:03 | 50.68765 | 16.86267 | 34956 ft | 453 kts | 188° |
| 2026-05-04 17:04 | 50.56189 | 16.84615 | 34954 ft | 453 kts | 187° |
| 2026-05-04 17:05 | 50.43662 | 16.82979 | 34960 ft | 452 kts | 188° |
| 2026-05-04 17:06 | 50.34253 | 16.81753 | 34958 ft | 453 kts | 187° |
| 2026-05-04 17:07 | 50.25874 | 16.80666 | 34981 ft | 453 kts | 187° |
| 2026-05-04 17:07 | 50.18548 | 16.79721 | 34971 ft | 455 kts | 187° |
| 2026-05-04 17:08 | 50.09100 | 16.78509 | 34980 ft | 455 kts | 187° |
| 2026-05-04 17:09 | 50.02767 | 16.77697 | 34970 ft | 456 kts | 187° |
| 2026-05-04 17:09 | 49.96449 | 16.76886 | 34969 ft | 457 kts | 187° |
| 2026-05-04 17:10 | 49.80609 | 16.74868 | 34980 ft | 458 kts | 187° |
| 2026-05-04 17:11 | 49.74256 | 16.74063 | 34977 ft | 458 kts | 187° |
| 2026-05-04 17:12 | 49.64768 | 16.72864 | 34962 ft | 457 kts | 187° |
| 2026-05-04 17:13 | 49.48942 | 16.70875 | 34962 ft | 457 kts | 186° |
| 2026-05-04 17:14 | 49.36291 | 16.69289 | 34981 ft | 456 kts | 186° |
| 2026-05-04 17:15 | 49.26764 | 16.68107 | 34967 ft | 457 kts | 187° |
| 2026-05-04 17:16 | 49.14066 | 16.66524 | 34970 ft | 460 kts | 187° |
| 2026-05-04 17:17 | 49.01257 | 16.64940 | 34966 ft | 462 kts | 187° |
| 2026-05-04 17:18 | 48.88447 | 16.63352 | 34953 ft | 463 kts | 187° |
| 2026-05-04 17:19 | 48.75690 | 16.61450 | 34920 ft | 460 kts | 193° |
| 2026-05-04 17:20 | 48.63210 | 16.57425 | 34963 ft | 458 kts | 194° |
| 2026-05-04 17:20 | 48.53845 | 16.54428 | 34946 ft | 458 kts | 193° |
| 2026-05-04 17:21 | 48.41375 | 16.50537 | 34958 ft | 457 kts | 194° |
| 2026-05-04 17:22 | 48.35163 | 16.48608 | 34941 ft | 458 kts | 194° |
| 2026-05-04 17:23 | 48.22710 | 16.44747 | 34938 ft | 458 kts | 194° |
| 2026-05-04 17:24 | 48.13386 | 16.41869 | 34939 ft | 458 kts | 193° |
| 2026-05-04 17:25 | 48.00845 | 16.38014 | 34947 ft | 459 kts | 193° |
| 2026-05-04 17:26 | 47.88318 | 16.34183 | 34949 ft | 462 kts | 193° |
| 2026-05-04 17:27 | 47.72542 | 16.29383 | 34955 ft | 463 kts | 193° |
| 2026-05-04 17:28 | 47.59925 | 16.25568 | 34961 ft | 463 kts | 193° |
| 2026-05-04 17:29 | 47.40986 | 16.20172 | 34975 ft | 462 kts | 187° |
| 2026-05-04 17:31 | 47.24984 | 16.18195 | 34974 ft | 460 kts | 186° |
| 2026-05-04 17:32 | 47.09064 | 16.15999 | 34967 ft | 458 kts | 187° |
| 2026-05-04 17:33 | 46.96354 | 16.14230 | 34977 ft | 457 kts | 187° |
| 2026-05-04 17:34 | 46.83727 | 16.12484 | 34992 ft | 459 kts | 187° |
| 2026-05-04 17:35 | 46.74163 | 16.11163 | 35738 ft | 457 kts | 186° |
| 2026-05-04 17:35 | 46.67876 | 16.10302 | 35959 ft | 459 kts | 187° |
| 2026-05-04 17:36 | 46.61550 | 16.09437 | 35982 ft | 457 kts | 187° |
| 2026-05-04 17:36 | 46.55230 | 16.08581 | 35988 ft | 455 kts | 186° |
| 2026-05-04 17:37 | 46.48933 | 16.07725 | 35991 ft | 453 kts | 186° |
| 2026-05-04 17:37 | 46.42677 | 16.06870 | 35990 ft | 452 kts | 187° |
| 2026-05-04 17:38 | 46.36442 | 16.06018 | 35998 ft | 452 kts | 186° |
| 2026-05-04 17:38 | 46.30157 | 16.05168 | 35996 ft | 453 kts | 187° |
| 2026-05-04 17:39 | 46.20717 | 16.03894 | 35990 ft | 454 kts | 187° |
| 2026-05-04 17:39 | 46.14439 | 16.03049 | 35998 ft | 455 kts | 186° |
| 2026-05-04 17:40 | 46.08098 | 16.02194 | 35770 ft | 458 kts | 186° |
| 2026-05-04 17:40 | 46.04964 | 16.01773 | 35523 ft | 456 kts | 187° |
| 2026-05-04 17:40 | 46.01800 | 16.01348 | 35256 ft | 452 kts | 186° |
| 2026-05-04 17:41 | 45.98663 | 16.00928 | 35027 ft | 452 kts | 186° |
| 2026-05-04 17:41 | 45.95550 | 16.00515 | 34789 ft | 454 kts | 187° |
| 2026-05-04 17:41 | 45.92448 | 16.00101 | 34549 ft | 456 kts | 186° |
| 2026-05-04 17:41 | 45.89273 | 15.99675 | 34312 ft | 458 kts | 187° |
| 2026-05-04 17:42 | 45.86086 | 15.99246 | 34071 ft | 459 kts | 186° |
| 2026-05-04 17:42 | 45.82907 | 15.98819 | 33814 ft | 461 kts | 186° |
| 2026-05-04 17:42 | 45.79710 | 15.98392 | 33542 ft | 461 kts | 186° |
| 2026-05-04 17:42 | 45.77586 | 15.98109 | 33364 ft | 462 kts | 186° |
| 2026-05-04 17:43 | 45.73381 | 15.97550 | 33017 ft | 462 kts | 186° |
| 2026-05-04 17:43 | 45.71223 | 15.97263 | 32823 ft | 462 kts | 186° |
| 2026-05-04 17:43 | 45.66976 | 15.96700 | 32502 ft | 462 kts | 186° |
| 2026-05-04 17:43 | 45.63764 | 15.96276 | 32240 ft | 462 kts | 186° |
| 2026-05-04 17:44 | 45.61624 | 15.95993 | 32091 ft | 463 kts | 186° |
| 2026-05-04 17:44 | 45.57349 | 15.95428 | 32022 ft | 463 kts | 187° |
| 2026-05-04 17:44 | 45.51977 | 15.94719 | 32020 ft | 463 kts | 186° |
| 2026-05-04 17:45 | 45.45570 | 15.93875 | 32013 ft | 464 kts | 186° |
| 2026-05-04 17:45 | 45.39154 | 15.93028 | 32014 ft | 464 kts | 186° |
| 2026-05-04 17:46 | 45.32715 | 15.92178 | 32037 ft | 464 kts | 186° |
| 2026-05-04 17:46 | 45.26306 | 15.91330 | 32020 ft | 464 kts | 186° |
| 2026-05-04 17:47 | 45.19900 | 15.90585 | 32046 ft | 463 kts | 185° |
| 2026-05-04 17:47 | 45.13450 | 15.90266 | 32026 ft | 463 kts | 182° |
| 2026-05-04 17:48 | 45.07045 | 15.90024 | 32043 ft | 462 kts | 182° |
| 2026-05-04 17:48 | 45.00602 | 15.89731 | 32047 ft | 462 kts | 184° |
| 2026-05-04 17:49 | 44.94162 | 15.89401 | 32063 ft | 462 kts | 184° |
| 2026-05-04 17:49 | 44.87723 | 15.89062 | 32048 ft | 463 kts | 183° |
| 2026-05-04 17:50 | 44.81373 | 15.88734 | 32038 ft | 446 kts | 184° |
| 2026-05-04 17:50 | 44.78335 | 15.88584 | 32053 ft | 430 kts | 184° |
| 2026-05-04 17:50 | 44.75388 | 15.88441 | 32051 ft | 415 kts | 183° |
| 2026-05-04 17:51 | 44.72543 | 15.88301 | 32059 ft | 401 kts | 183° |
| 2026-05-04 17:51 | 44.69791 | 15.88163 | 32030 ft | 388 kts | 184° |
| 2026-05-04 17:51 | 44.67153 | 15.88029 | 31802 ft | 375 kts | 184° |
| 2026-05-04 17:51 | 44.64561 | 15.87895 | 31417 ft | 366 kts | 184° |
| 2026-05-04 17:52 | 44.62058 | 15.87763 | 30908 ft | 364 kts | 183° |
| 2026-05-04 17:52 | 44.59507 | 15.87627 | 30361 ft | 362 kts | 183° |
| 2026-05-04 17:52 | 44.57002 | 15.87494 | 29770 ft | 367 kts | 184° |
| 2026-05-04 17:52 | 44.54415 | 15.87355 | 28842 ft | 378 kts | 183° |
| 2026-05-04 17:53 | 44.51719 | 15.87208 | 27655 ft | 396 kts | 183° |
| 2026-05-04 17:53 | 44.48907 | 15.87051 | 26334 ft | 416 kts | 183° |
| 2026-05-04 17:53 | 44.45946 | 15.86887 | 25026 ft | 434 kts | 183° |
| 2026-05-04 17:53 | 44.42911 | 15.86719 | 23798 ft | 441 kts | 182° |
| 2026-05-04 17:54 | 44.39867 | 15.86559 | 22551 ft | 440 kts | 183° |
| 2026-05-04 17:54 | 44.36817 | 15.86406 | 21583 ft | 431 kts | 182° |
| 2026-05-04 17:54 | 44.33839 | 15.86256 | 20688 ft | 425 kts | 183° |
| 2026-05-04 17:54 | 44.30901 | 15.86105 | 20054 ft | 421 kts | 182° |
| 2026-05-04 17:55 | 44.28014 | 15.85959 | 19527 ft | 415 kts | 182° |
| 2026-05-04 17:55 | 44.25148 | 15.85812 | 18996 ft | 409 kts | 182° |
| 2026-05-04 17:55 | 44.22346 | 15.85667 | 18416 ft | 406 kts | 182° |
| 2026-05-04 17:55 | 44.19560 | 15.85525 | 17780 ft | 402 kts | 182° |
| 2026-05-04 17:56 | 44.16768 | 15.85385 | 17148 ft | 398 kts | 182° |
| 2026-05-04 17:56 | 44.14021 | 15.85389 | 16528 ft | 394 kts | 173° |
| 2026-05-04 17:56 | 44.11429 | 15.86471 | 15932 ft | 391 kts | 155° |
| 2026-05-04 17:56 | 44.09021 | 15.88200 | 15382 ft | 387 kts | 152° |
| 2026-05-04 17:57 | 44.06652 | 15.89961 | 14812 ft | 383 kts | 152° |
| 2026-05-04 17:57 | 44.04336 | 15.91676 | 14260 ft | 380 kts | 153° |
| 2026-05-04 17:57 | 44.02005 | 15.93381 | 13683 ft | 376 kts | 153° |
| 2026-05-04 17:57 | 43.99685 | 15.95057 | 13065 ft | 373 kts | 153° |
| 2026-05-04 17:58 | 43.97381 | 15.96709 | 12457 ft | 370 kts | 153° |
| 2026-05-04 17:58 | 43.95134 | 15.98312 | 11990 ft | 364 kts | 153° |
| 2026-05-04 17:58 | 43.92950 | 15.99872 | 11833 ft | 350 kts | 153° |
| 2026-05-04 17:58 | 43.90828 | 16.01392 | 11698 ft | 331 kts | 153° |
| 2026-05-04 17:59 | 43.88821 | 16.02830 | 11263 ft | 320 kts | 153° |
| 2026-05-04 17:59 | 43.86772 | 16.03855 | 10932 ft | 312 kts | 173° |
| 2026-05-04 17:59 | 43.82665 | 16.03365 | 10673 ft | 289 kts | 190° |
| 2026-05-04 18:00 | 43.80730 | 16.02818 | 10541 ft | 279 kts | 190° |
| 2026-05-04 18:00 | 43.78864 | 16.02304 | 10364 ft | 273 kts | 190° |
| 2026-05-04 18:00 | 43.77022 | 16.01798 | 10089 ft | 271 kts | 190° |
| 2026-05-04 18:00 | 43.75167 | 16.01298 | 9768 ft | 271 kts | 190° |
| 2026-05-04 18:01 | 43.73316 | 16.00807 | 9445 ft | 270 kts | 189° |
| 2026-05-04 18:01 | 43.71497 | 16.00330 | 9145 ft | 269 kts | 189° |
| 2026-05-04 18:01 | 43.69657 | 15.99853 | 8833 ft | 268 kts | 189° |
| 2026-05-04 18:02 | 43.66022 | 15.98909 | 8255 ft | 266 kts | 189° |
| 2026-05-04 18:02 | 43.64207 | 15.98439 | 8048 ft | 261 kts | 190° |
| 2026-05-04 18:02 | 43.62433 | 15.97979 | 8001 ft | 258 kts | 190° |
| 2026-05-04 18:02 | 43.60663 | 15.97517 | 8005 ft | 260 kts | 190° |
| 2026-05-04 18:03 | 43.58887 | 15.97052 | 8005 ft | 264 kts | 190° |
| 2026-05-04 18:03 | 43.57075 | 15.96576 | 8002 ft | 266 kts | 190° |
| 2026-05-04 18:03 | 43.55254 | 15.96100 | 7997 ft | 265 kts | 189° |
| 2026-05-04 18:03 | 43.53440 | 15.95629 | 7988 ft | 264 kts | 189° |
| 2026-05-04 18:04 | 43.51630 | 15.95163 | 7843 ft | 266 kts | 190° |
| 2026-05-04 18:04 | 43.49791 | 15.94674 | 7198 ft | 273 kts | 194° |
| 2026-05-04 18:04 | 43.46728 | 15.91628 | 6176 ft | 271 kts | 224° |
| 2026-05-04 18:05 | 43.45440 | 15.89770 | 5735 ft | 267 kts | 225° |
| 2026-05-04 18:05 | 43.44172 | 15.87932 | 5251 ft | 266 kts | 225° |
| 2026-05-04 18:05 | 43.42894 | 15.86103 | 4876 ft | 266 kts | 225° |
| 2026-05-04 18:05 | 43.41609 | 15.84284 | 4621 ft | 262 kts | 225° |
| 2026-05-04 18:06 | 43.39084 | 15.80731 | 4116 ft | 257 kts | 225° |
| 2026-05-04 18:06 | 43.37858 | 15.79002 | 3872 ft | 255 kts | 225° |
| 2026-05-04 18:06 | 43.36617 | 15.77259 | 3626 ft | 254 kts | 225° |
| 2026-05-04 18:07 | 43.35381 | 15.75528 | 3372 ft | 252 kts | 225° |
| 2026-05-04 18:07 | 43.34161 | 15.73824 | 3122 ft | 250 kts | 225° |
| 2026-05-04 18:07 | 43.32858 | 15.72229 | 3022 ft | 252 kts | 208° |
| 2026-05-04 18:07 | 43.31171 | 15.71697 | 3017 ft | 251 kts | 175° |
| 2026-05-04 18:08 | 43.29511 | 15.72428 | 3016 ft | 253 kts | 148° |
| 2026-05-04 18:08 | 43.28168 | 15.73944 | 3012 ft | 255 kts | 135° |
| 2026-05-04 18:08 | 43.26920 | 15.75660 | 3000 ft | 254 kts | 134° |
| 2026-05-04 18:08 | 43.25681 | 15.77383 | 3005 ft | 253 kts | 134° |
| 2026-05-04 18:09 | 43.24458 | 15.81685 | 3012 ft | 253 kts | 79° |
| 2026-05-04 18:09 | 43.26274 | 15.85688 | 3007 ft | 253 kts | 44° |
| 2026-05-04 18:10 | 43.27538 | 15.87394 | 3013 ft | 255 kts | 43° |
| 2026-05-04 18:10 | 43.28806 | 15.89110 | 3015 ft | 256 kts | 44° |
| 2026-05-04 18:10 | 43.30051 | 15.90819 | 3012 ft | 256 kts | 44° |
| 2026-05-04 18:10 | 43.31313 | 15.92565 | 2942 ft | 258 kts | 44° |
| 2026-05-04 18:11 | 43.32579 | 15.94331 | 2847 ft | 257 kts | 44° |
| 2026-05-04 18:11 | 43.33824 | 15.96072 | 2820 ft | 252 kts | 44° |
| 2026-05-04 18:11 | 43.35048 | 15.97785 | 2818 ft | 250 kts | 44° |
| 2026-05-04 18:11 | 43.36251 | 15.99470 | 2814 ft | 249 kts | 44° |
| 2026-05-04 18:12 | 43.37467 | 16.01171 | 2823 ft | 249 kts | 44° |
| 2026-05-04 18:12 | 43.38675 | 16.02860 | 2806 ft | 242 kts | 44° |
| 2026-05-04 18:12 | 43.39803 | 16.04504 | 2793 ft | 230 kts | 48° |
| 2026-05-04 18:12 | 43.40796 | 16.06166 | 2800 ft | 218 kts | 50° |
| 2026-05-04 18:13 | 43.41704 | 16.07788 | 2817 ft | 217 kts | 51° |
| 2026-05-04 18:13 | 43.42588 | 16.09390 | 2825 ft | 202 kts | 51° |
| 2026-05-04 18:13 | 43.44132 | 16.12179 | 2822 ft | 173 kts | 50° |
| 2026-05-04 18:14 | 43.44848 | 16.13475 | 2741 ft | 168 kts | 50° |
| 2026-05-04 18:14 | 43.45528 | 16.14705 | 2529 ft | 159 kts | 50° |
| 2026-05-04 18:14 | 43.46188 | 16.15889 | 2326 ft | 153 kts | 50° |
| 2026-05-04 18:15 | 43.47467 | 16.18200 | 1932 ft | 152 kts | 51° |
| 2026-05-04 18:15 | 43.48747 | 16.20510 | 1543 ft | 146 kts | 50° |
| 2026-05-04 18:15 | 43.49373 | 16.21640 | 1320 ft | 149 kts | 49° |
| 2026-05-04 18:16 | 43.49998 | 16.22767 | 1112 ft | 148 kts | 48° |
| 2026-05-04 18:16 | 43.50623 | 16.23895 | 931 ft | 148 kts | 48° |
| 2026-05-04 18:16 | 43.51242 | 16.25010 | 736 ft | 146 kts | 47° |
| 2026-05-04 18:17 | 43.52478 | 16.27212 | 318 ft | 148 kts | 47° |
| 2026-05-04 18:17 | 43.53088 | 16.28331 | 156 ft | 144 kts | 47° |
| 2026-05-04 18:17 | 43.54107 | 16.30195 | 66 ft | 91 kts | 54° |
| 2026-05-04 18:18 | 43.54410 | 16.30733 | 58 ft | 57 kts | 52° |
| 2026-05-04 18:18 | 43.54542 | 16.30974 | 56 ft | 10 kts | 62° |
| 2026-05-04 18:18 | 43.54573 | 16.31046 | 59 ft | 5 kts | 6° |
| 2026-05-04 18:18 | 43.54579 | 16.31009 | 58 ft | 5 kts | 234° |
| 2026-05-04 18:19 | 43.54507 | 16.30891 | 58 ft | 14 kts | 233° |
| 2026-05-04 18:19 | 43.54432 | 16.30759 | 58 ft | 20 kts | 231° |
| 2026-05-04 18:19 | 43.54335 | 16.30589 | 58 ft | 27 kts | 232° |
| 2026-05-04 18:20 | 43.54220 | 16.30385 | 63 ft | 24 kts | 233° |
| 2026-05-04 18:20 | 43.54116 | 16.30213 | 70 ft | 20 kts | 224° |
| 2026-05-04 18:20 | 43.54025 | 16.30107 | 69 ft | 18 kts | 205° |
| 2026-05-04 18:20 | 43.53918 | 16.30059 | 67 ft | 13 kts | 201° |
| 2026-05-04 18:21 | 43.53858 | 16.29974 | 67 ft | 12 kts | 229° |
| 2026-05-04 18:21 | 43.53804 | 16.29881 | 62 ft | 12 kts | 232° |
| 2026-05-04 18:21 | 43.53756 | 16.29790 | 67 ft | 12 kts | 233° |
| 2026-05-04 18:21 | 43.53708 | 16.29701 | 65 ft | 11 kts | 234° |
| 2026-05-04 18:22 | 43.53672 | 16.29676 | 67 ft | 6 kts | 165° |
| 2026-05-04 18:22 | 43.53660 | 16.29723 | 67 ft | 2 kts | 95° |
| 2026-05-04 18:22 | 43.53658 | 16.29743 | 67 ft | 2 kts | 96° |
| 2026-05-04 18:22 | 43.53658 | 16.29746 | 67 ft | 0 kts | 95° |